Aviation Digital Data Service (ADDS)

Output produced by METARs form (0716 UTC 24 March 2019)
found at http://www.aviationweather.gov/metar/data/
 
RPLC 240700Z 09010KT 9999 SCT020 BKN300 32/17 Q1012 NOSIG RMK A2988
TAF RPLC 240500Z 2406/2512 16006KT 9999 SCT020 BKN300 TX35/2406Z TN25/2422Z 
     TEMPO 2406/2412 18010KT SCT020 BKN100
       
RPVD 240700Z 09012KT 9999 SCT015 29/24 Q1009 RMK A2980
TAF RPVD 240500Z 2406/2506 04008KT 9999 FEW015 
     TEMPO 2406/2412 08012KT SCT015
       
RPMD 240700Z 01009KT 330V040 9999 FEW016 SCT090 BKN290 32/20 Q1009 RMK A2980
TAF RPMD 240500Z 2406/2506 36008KT 9999 FEW016 SCT290 
     TEMPO 2406/2412 04014KT FEW016 SCT090 BKN290
       
RPLI 240700Z 08010KT 050V120 9999 FEW018 BKN090 31/21 Q1011 NOSIG RMK A2985
TAF RPLI 240500Z 2406/2506 07008KT 9999 FEW018 SCT100 
     TEMPO 2406/2412 02012KT FEW018 BKN090
       
RPVM 240700Z 04012KT 9999 FEW020 BKN100 30/22 Q1011 NOSIG RMK A2985
TAF RPVM 240500Z 2406/2512 04008KT 9999 FEW020 
     TEMPO 2406/2412 07012KT FEW020 BKN100 
     TEMPO 2412/2418 06010KT FEW020 SCT100
       
RPLL 240700Z 11014KT 9999 FEW025 32/18 Q1010 NOSIG RMK A2983
TAF RPLL 240500Z 2406/2512 11008KT 9999 FEW025 TX34/2406Z TN26/2421Z 
     TEMPO 2406/2412 14014KT SCT025 
     TEMPO 2412/2418 12010KT
       
RPVP 240700Z 09008KT 9999 FEW019 32/23 Q1010 RMK A2983
TAF RPVP 240500Z 2406/2506 09006KT 9999 FEW019 
     TEMPO 2406/2412 09012KT FEW019 SCT080
       
RPLB 240700Z 07015KT 9999 FEW020 33/16 Q1010 NOSIG RMK A2983
TAF RPLB 240500Z 2406/2506 07007KT 9999 FEW025 SCT300 TX34/2406Z TN25/2422Z 
     TEMPO 2406/2412 34010KT SCT025 BKN080
       
RPMR 240700Z 04010G16KT 9999 FEW018 BKN080 33/19 Q1010 NOSIG RMK A2983
TAF RPMR 240500Z 2406/2506 04008KT 9999 FEW018 SCT080 
     TEMPO 2406/2412 16012KT FEW018 BKN080
       
RPMZ 240700Z VRB05KT 9999 FEW016CB SCT090 29/24 Q1009 RMK A2980
TAF RPMZ 240500Z 2406/2506 22006KT 9999 FEW017 
     TEMPO 2406/2412 26010KT FEW017 SCT090